Station: Parafield

  Atmospheric Gas Attenuation - ITU Rec 676-11   --------------- db/100km ---------------
Date Time Temp RH % AH g/m3 Dew Point Wind Direction Speed kph Gust kph Barometer mB Rainfall Since 9am 24GHz 47GHz 76GHz 122GHz 134GHz 241GHz
22 12:20 24.7 69 15.62 18.6 22 24 1014.5 0.6 33.8 34.1 62.2 164.3 175.7 609.7
22 12:10 24.7 68 15.39 18.4 9 13 1014.2 0.6 33.3 33.7 61.2 161.6 172.4 598.2
22 12:00 24.6 73 16.43 19.4 9 17 1014.2 0.6 35.5 35.5 65.8 174.0 187.5 650.9
22 11:50 24.2 68 14.96 17.9 7 7 1013.9 0.6 32.5 33.1 59.7 157.7 167.4 580.8
22 11:40 24 68 14.79 17.7 7 9 1014.1 0.4 32.1 32.9 59.2 156.2 165.5 574.1
22 11:30 23.5 70 14.8 17.7 19 33 1014.2 0.4 32.2 33.1 59.6 157.3 166.7 578.4
22 11:20 26.6 49 12.33 15 17 20 1014.3 0 26.8 28.0 47.5 125.1 128.0 443.5
22 11:10 26.2 48 11.82 14.6 17 19 1014.2 0 25.7 27.3 45.7 120.5 122.2 423.4
22 11:00 26.2 51 12.56 15.3 15 24 1014.1 0 27.3 28.5 48.6 128.0 131.5 455.8
22 10:50 25.7 52 12.45 15.1 22 26 1013.9 0 27.1 28.4 48.4 127.7 130.9 453.7
22 10:40 25.3 55 12.88 15.6 22 24 1013.9 0 28.0 29.2 50.4 132.8 137.1 475.4
22 10:30 25.3 56 13.11 15.9 28 35 1013.9 0 28.5 29.6 51.3 135.3 140.1 485.9
22 10:20 24.8 57 12.97 15.7 28 30 1014 0 28.2 29.6 51.1 134.6 139.2 482.6
22 10:10 24.4 60 13.35 16.1 26 30 1014.2 0 29.0 30.3 52.9 139.4 145.0 502.7
22 10:00 24.2 59 12.98 15.7 32 44 1014.5 0 28.3 29.8 51.5 135.8 140.5 486.9
22 09:50 25.4 50 11.77 14.2 33 41 1014.3 0 25.7 27.5 46.0 121.2 122.8 425.5
22 09:40 25.8 48 11.56 14 33 35 1014.2 0 25.2 27.0 45.0 118.5 119.6 414.2
22 09:30 25.7 49 11.73 14.2 30 39 1013.9 0 25.6 27.3 45.7 120.3 121.8 422.0
22 09:20 25.6 49 11.67 14.1 28 33 1013.9 0 25.4 27.3 45.5 119.8 121.2 419.9
22 09:10 25.4 49 11.54 13.9 32 37 1013.8 0 25.2 27.1 45.1 118.8 119.9 415.3
22 09:00 25.4 50 11.77 14.2 30 41 1013.8 0 25.7 27.5 46.0 121.1 122.8 425.3
22 08:50 25.3 51 11.94 14.7 28 35 1013.9 1.4 26.0 27.8 46.7 123.0 125.1 433.3
22 08:40 25.1 52 12.04 14.8 32 35 1013.8 1.4 26.2 28.0 47.2 124.4 126.7 438.8
22 08:30 24.8 54 12.29 15.1 30 39 1013.8 1.4 26.8 28.5 48.4 127.4 130.4 451.7
22 08:20 24.3 58 12.83 15.5 28 37 1013.8 1.4 28.0 29.5 50.8 134.0 138.2 479.1
22 08:10 23.8 61 13.12 15.8 28 32 1013.9 1.4 28.6 30.1 52.3 138.0 143.0 495.7
22 08:00 23.4 62 13.04 15.7 30 39 1013.7 1.4 28.5 30.1 52.2 137.8 142.7 494.4
22 07:50 23.1 64 13.23 15.9 33 37 1013.7 1.4 28.9 30.6 53.2 140.4 145.8 505.3
22 07:40 22.9 65 13.28 16 32 33 1013.8 1.4 29.0 30.7 53.6 141.3 146.8 509.0
22 07:30 22.6 66 13.26 15.9 35 44 1013.7 1.4 29.0 30.8 53.7 141.6 147.1 510.0
22 07:20 22.6 66 13.26 15.9 37 46 1013.7 1.4 29.0 30.8 53.7 141.6 147.1 510.0
22 07:10 23 61 12.54 15.1 24 30 1014.2 1.4 27.4 29.5 50.5 133.1 136.8 473.8
22 07:00 23.6 58 12.33 14.9 24 33 1014.2 1.2 27.0 28.9 49.3 129.8 133.0 460.6
22 06:50 22.9 63 12.87 15.5 20 24 1013.7 1.2 28.1 30.0 51.9 136.8 141.3 489.6
22 06:40 22.8 63 12.8 15.4 24 30 1013.4 1.2 28.0 29.9 51.6 136.2 140.5 486.9
22 06:30 22.3 69 13.62 16.3 17 20 1013.6 1 29.8 31.5 55.4 146.2 152.7 529.2
22 06:20 22.4 69 13.7 16.4 19 20 1013.4 1 29.9 31.6 55.7 146.9 153.5 532.3
22 06:10 22.5 69 13.78 16.5 19 24 1013.5 0.8 30.1 31.7 55.9 147.6 154.5 535.5
22 06:00 22.5 70 13.98 16.8 20 28 1013.4 0.6 30.5 32.0 56.8 149.8 157.2 545.2
22 05:50 22.9 66 13.49 16.2 22 26 1013.6 0.2 29.5 31.1 54.4 143.6 149.7 518.9
22 05:40 28 35 9.52 11.1 35 44 1013.5 0 20.8 23.4 36.5 95.9 92.5 319.6
22 05:30 27.2 37 9.63 11.3 19 26 1013.1 0 21.1 23.8 37.2 97.8 94.7 327.0
22 05:20 28 34 9.25 10.7 20 26 1012.9 0 20.3 23.0 35.6 93.4 89.5 308.9
22 05:10 27.9 36 9.74 11.5 24 28 1013 0 21.3 23.7 37.3 98.0 95.1 328.6
22 04:50 28.6 31 8.71 9.8 26 28 1012.8 0 19.1 22.2 33.5 87.9 82.9 285.8
22 04:40 28.6 32 8.99 10.3 24 30 1012.8 0 19.7 22.5 34.4 90.4 85.9 296.5
22 04:30 28.3 34 9.4 10.9 24 35 1012.7 0 20.6 23.2 35.9 94.4 90.8 313.5
22 04:20 28.7 33 9.33 10.8 32 35 1012.5 0 20.4 23.0 35.5 93.3 89.5 309.2
22 04:10 29.3 31 9.05 10.4 35 39 1012.6 0 19.8 22.4 34.3 90.1 85.8 296.3
22 04:00 29.4 31 9.1 10.5 28 37 1012.7 0 19.9 22.5 34.5 90.5 86.3 297.8
22 03:50 29.5 31 9.15 10.6 26 32 1012.8 0 20.0 22.5 34.6 90.8 86.7 299.4
22 03:40 29.6 31 9.2 10.7 28 32 1012.7 0 20.1 22.6 34.7 91.1 87.1 300.9
22 03:30 29.8 30 9 10.4 30 39 1012.7 0 19.7 22.3 34.0 89.2 84.8 292.6
22 03:20 30 31 9.4 11 32 35 1012.8 0 20.5 22.7 35.2 92.5 88.9 307.1
22 03:10 30.3 30 9.25 10.8 26 32 1012.9 0 20.2 22.5 34.6 90.8 87.0 300.4
22 03:00 30.4 30 9.3 10.9 30 39 1013 0 20.3 22.5 34.7 91.2 87.4 301.9
22 02:50 30.3 30 9.25 10.8 26 28 1013 0 20.2 22.5 34.6 90.8 87.0 300.4
22 02:40 30.5 30 9.35 11 30 35 1013.1 0 20.4 22.6 34.9 91.5 87.8 303.5
22 02:30 30.5 30 9.35 11 30 41 1013.2 0 20.4 22.6 34.9 91.5 87.8 303.5
22 02:20 30.5 30 9.35 11 28 32 1013.2 0 20.4 22.6 34.9 91.5 87.8 303.5
22 02:10 30.6 30 9.4 11.1 30 35 1013.3 0 20.5 22.6 35.0 91.9 88.3 305.0
22 02:00 30.6 30 9.4 11.1 28 37 1013.5 0 20.5 22.6 35.0 91.9 88.3 305.1
22 01:50 30.6 30 9.4 11.1 26 30 1013.6 0 20.5 22.6 35.0 91.9 88.3 305.1
22 01:40 30.6 30 9.4 11.1 24 30 1013.6 0 20.5 22.6 35.0 91.9 88.3 305.1
22 01:30 30.7 30 9.45 11.1 24 32 1013.7 0 20.6 22.7 35.1 92.2 88.7 306.7
22 01:20 30.8 29 9.18 10.7 28 32 1013.7 0 20.0 22.3 34.2 89.8 85.7 296.1
22 01:10 30.8 29 9.18 10.7 28 35 1013.7 0 20.0 22.3 34.2 89.8 85.7 296.1
22 01:00 30.8 29 9.18 10.7 28 35 1013.8 0 20.0 22.3 34.2 89.8 85.7 296.1
22 00:50 30.9 29 9.23 10.8 24 30 1013.9 0 20.1 22.3 34.3 90.1 86.2 297.7
22 00:40 31 29 9.28 10.9 33 39 1013.9 0 20.2 22.4 34.5 90.4 86.6 299.2
22 00:30 31 29 9.28 10.9 28 37 1013.9 0 20.2 22.4 34.5 90.4 86.6 299.2
22 00:20 30.8 29 9.18 10.7 26 28 1014 0 20.0 22.3 34.2 89.8 85.8 296.2
22 00:10 30.9 29 9.23 10.8 28 30 1014 0 20.1 22.3 34.3 90.1 86.2 297.7
22 00:00 31 29 9.28 10.9 26 35 1014.1 0 20.2 22.4 34.5 90.4 86.6 299.2
21 23:50 31 29 9.28 10.9 28 33 1014.2 0 20.2 22.4 34.5 90.5 86.6 299.3
21 23:40 31 29 9.28 10.9 26 33 1014.1 0 20.2 22.4 34.5 90.4 86.6 299.2
21 23:30 31.1 29 9.33 11 30 37 1014.1 0 20.3 22.4 34.6 90.8 87.1 300.8
21 23:20 31.1 29 9.33 11 30 33 1014.2 0 20.3 22.4 34.6 90.8 87.1 300.8
21 23:10 31 30 9.6 11.4 28 32 1014.2 0 20.9 22.8 35.5 93.3 90.1 311.4
21 23:00 31.2 29 9.38 11.1 28 37 1014.2 0 20.4 22.5 34.7 91.1 87.5 302.3
21 22:50 31 30 9.6 11.4 24 28 1014.1 0 20.9 22.8 35.5 93.2 90.1 311.4
21 22:40 31.2 29 9.38 11.1 28 33 1014.1 0 20.4 22.5 34.7 91.1 87.5 302.3
21 22:30 31.3 29 9.43 11.1 26 35 1014 0 20.5 22.5 34.8 91.4 87.9 303.8
21 22:20 31.3 29 9.43 11.1 22 24 1014 0 20.5 22.5 34.8 91.4 87.9 303.8
21 22:10 31.3 29 9.43 11.1 22 28 1014.1 0 20.5 22.5 34.8 91.4 87.9 303.8
21 22:00 31.2 30 9.71 11.6 24 33 1014 0 21.1 22.9 35.8 94.0 91.0 314.8
21 21:50 31.5 29 9.54 11.3 26 30 1014 0 20.7 22.6 35.1 92.2 88.9 307.2
21 21:40 31.6 29 9.59 11.4 26 30 1013.9 0 20.8 22.6 35.2 92.5 89.3 308.7
21 21:30 31.7 29 9.64 11.5 26 35 1013.9 0 20.9 22.7 35.3 92.8 89.7 310.2
21 21:20 31.6 29 9.59 11.4 22 26 1013.8 0 20.8 22.6 35.2 92.5 89.3 308.7
21 21:10 31.8 29 9.69 11.6 22 24 1013.9 0 21.0 22.7 35.5 93.1 90.2 311.7
21 21:00 32.2 29 9.9 11.9 28 39 1013.8 0 21.4 22.9 36.0 94.5 92.0 318.1
21 20:50 32.3 29 9.95 12 22 26 1013.8 0 21.5 23.0 36.1 94.8 92.4 319.6
21 20:40 32.4 28 9.66 11.6 22 28 1013.8 0 20.9 22.5 35.1 92.2 89.2 308.3
21 20:30 32.4 28 9.66 11.6 24 33 1013.7 0 20.9 22.5 35.1 92.2 89.2 308.3
21 20:20 32.6 28 9.76 11.7 28 33 1013.6 0 21.1 22.6 35.3 92.8 90.0 311.3
21 20:10 32.8 28 9.87 11.9 32 35 1013.6 0 21.3 22.7 35.6 93.5 91.0 314.6
21 20:00 33 28 9.97 12.1 26 39 1013.6 0 21.5 22.8 35.8 94.2 91.8 317.6
21 19:50 33.1 27 9.67 12.1 26 30 1013.6 0 20.9 22.4 34.8 91.5 88.5 306.1
21 19:40 33.3 28 10.13 12.3 30 35 1013.6 0 21.8 22.9 36.2 95.2 93.2 322.5

Last Refresh: 22-Jan-2022 12:31:55

Bureau of Meteorology